Time;durP1;ratioP1;P1;durP2;ratioP2;P2;SDS_P1;SDS_P2;PMS_P1;PMS_P2;Temp;Humidity;BMP_temperature;BMP_pressure;BME280_temperature;BME280_humidity;BME280_pressure;Samples;Min_cycle;Max_cycle;Signal;HPM_P1;HPM_P2
2022/11/18 00:00:45;;;;;;;0.70;0.70;;;11.30;62.10;;;;;;20575;6762;306890;-73
2022/11/18 00:03:21;;;;;;;0.60;0.60;;;11.30;62.10;;;;;;20734;6793;121750;-73
2022/11/18 00:05:56;;;;;;;0.70;0.70;;;11.30;61.80;;;;;;20690;6793;123567;-74
2022/11/18 00:08:32;;;;;;;0.50;0.50;;;11.20;62.30;;;;;;20455;6796;344150;-74
2022/11/18 00:11:07;;;;;;;0.50;0.50;;;11.40;61.70;;;;;;20819;6768;117231;-74
2022/11/18 00:16:40;;;;;;;1.07;0.77;;;11.40;61.80;;;;;;20510;6799;310316;-74
2022/11/18 00:19:16;;;;;;;0.75;0.75;;;11.80;61.50;;;;;;20401;6816;340159;-74
2022/11/18 00:21:52;;;;;;;1.40;0.80;;;11.70;60.90;;;;;;20574;6756;275560;-74
2022/11/18 00:24:28;;;;;;;0.70;0.70;;;12.00;60.10;;;;;;20753;6782;117553;-74
2022/11/18 00:27:04;;;;;;;1.10;0.60;;;11.60;60.90;;;;;;20787;6767;117622;-73
2022/11/18 00:29:41;;;;;;;1.30;1.00;;;11.50;60.80;;;;;;20304;6782;344416;-74
2022/11/18 00:32:16;;;;;;;0.80;0.80;;;11.70;61.20;;;;;;20723;6787;117399;-72
2022/11/18 00:34:52;;;;;;;1.20;1.00;;;11.60;61.20;;;;;;20748;6778;117297;-73
2022/11/18 00:37:28;;;;;;;0.90;0.90;;;11.30;61.60;;;;;;20744;6766;117645;-74
2022/11/18 00:40:03;;;;;;;1.10;1.10;;;11.20;62.30;;;;;;20527;6779;123195;-71
2022/11/18 00:42:52;;;;;;;2.17;1.30;;;11.00;62.70;;;;;;20738;6781;117561;-74
2022/11/18 00:45:29;;;;;;;1.10;1.00;;;10.80;63.40;;;;;;20710;6799;117357;-73
2022/11/18 00:48:07;;;;;;;1.20;1.10;;;10.70;63.30;;;;;;20515;6778;280840;-73
2022/11/18 00:50:41;;;;;;;2.40;1.40;;;11.40;62.00;;;;;;20547;6778;279482;-73
2022/11/18 00:53:18;;;;;;;1.30;1.30;;;11.40;62.00;;;;;;20695;6799;119106;-73
2022/11/18 00:55:53;;;;;;;1.53;0.70;;;11.40;61.70;;;;;;20657;6799;124158;-73
2022/11/18 00:58:29;;;;;;;0.65;0.65;;;11.20;62.10;;;;;;20511;6787;280505;-73
2022/11/18 01:01:05;;;;;;;0.88;0.68;;;11.30;61.60;;;;;;20529;6784;287831;-74
2022/11/18 01:03:40;;;;;;;0.77;0.53;;;11.60;60.80;;;;;;20644;6797;119375;-73
2022/11/18 01:06:18;;;;;;;0.50;0.50;;;11.50;60.70;;;;;;20705;6797;122011;-73
2022/11/18 01:08:51;;;;;;;1.00;0.70;;;11.30;61.40;;;;;;20494;6799;284013;-73
2022/11/18 01:14:27;;;;;;;2.30;0.50;;;11.70;60.60;;;;;;20803;6764;117287;-74
2022/11/18 01:17:03;;;;;;;1.23;0.60;;;11.30;60.90;;;;;;20846;6749;117114;-73
2022/11/18 01:19:39;;;;;;;1.20;0.70;;;11.30;61.30;;;;;;20429;6757;278870;-73
2022/11/18 01:22:15;;;;;;;0.90;0.50;;;11.40;61.20;;;;;;20796;6764;117802;-73
2022/11/18 01:24:50;;;;;;;0.60;0.60;;;11.40;61.20;;;;;;20593;6764;277049;-74
2022/11/18 01:27:26;;;;;;;0.57;0.30;;;11.50;60.90;;;;;;20799;6764;117458;-74
2022/11/18 01:30:04;;;;;;;0.47;0.45;;;11.50;60.60;;;;;;20415;6749;312410;-74
2022/11/18 01:32:39;;;;;;;0.50;0.50;;;11.50;60.60;;;;;;20844;6749;117101;-73
2022/11/18 01:35:15;;;;;;;0.68;0.52;;;11.50;60.70;;;;;;20603;6758;326779;-73
2022/11/18 01:37:50;;;;;;;0.40;0.40;;;11.60;60.50;;;;;;20782;6764;118903;-73
2022/11/18 01:40:26;;;;;;;1.53;0.40;;;11.50;60.60;;;;;;20587;6832;117940;-74
2022/11/18 01:43:01;;;;;;;0.93;0.47;;;11.20;61.10;;;;;;20653;6744;305450;-73
2022/11/18 01:45:37;;;;;;;0.70;0.33;;;11.40;60.80;;;;;;20859;6746;117910;-73
2022/11/18 01:48:16;;;;;;;0.40;0.40;;;11.30;60.70;;;;;;20577;6761;328685;-74
2022/11/18 01:50:51;;;;;;;0.40;0.40;;;11.50;60.50;;;;;;20532;6821;336846;-73
2022/11/18 01:53:27;;;;;;;1.10;0.50;;;11.80;60.00;;;;;;20617;6753;306242;-74
2022/11/18 01:56:05;;;;;;;0.37;0.37;;;12.00;59.20;;;;;;20530;6779;307471;-73
2022/11/18 01:58:51;;;;;;;0.50;0.47;;;12.20;58.50;;;;;;20740;6764;117176;-74
2022/11/18 02:01:27;;;;;;;0.68;0.52;;;11.90;58.70;;;;;;20491;6794;336639;-73
2022/11/18 02:04:03;;;;;;;1.10;0.30;;;11.90;58.90;;;;;;20736;6775;117105;-73
2022/11/18 02:06:39;;;;;;;0.43;0.40;;;11.70;59.10;;;;;;20631;6745;302311;-73
2022/11/18 02:09:15;;;;;;;0.73;0.40;;;11.90;59.00;;;;;;20501;6762;281899;-74
2022/11/18 02:11:53;;;;;;;0.68;0.50;;;11.90;59.00;;;;;;20616;6746;306304;-73
2022/11/18 02:14:33;;;;;;;0.40;0.40;;;12.10;58.70;;;;;;20843;6746;117706;-74
2022/11/18 02:17:25;;;;;;;0.40;0.40;;;11.90;59.00;;;;;;20632;6746;285701;-73
2022/11/18 02:20:07;;;;;;;0.50;0.50;;;11.80;58.80;;;;;;20632;6746;118370;-73
2022/11/18 02:23:12;;;;;;;0.50;0.50;;;11.60;59.20;;;;;;20844;6746;116966;-74
2022/11/18 02:26:18;;;;;;;0.40;0.40;;;11.20;60.20;;;;;;20558;6761;310937;-74
2022/11/18 02:29:17;;;;;;;0.57;0.57;;;11.40;60.80;;;;;;20723;6758;117201;-73
2022/11/18 02:32:06;;;;;;;0.43;0.43;;;11.20;60.80;;;;;;20574;6758;338816;-74
2022/11/18 02:34:52;;;;;;;0.40;0.37;;;11.30;61.00;;;;;;20691;6761;122690;-73
2022/11/18 02:37:35;;;;;;;0.47;0.47;;;11.00;61.50;;;;;;20750;6773;120959;-73
2022/11/18 02:40:33;;;;;;;0.40;0.30;;;11.00;61.40;;;;;;20565;6760;117559;-73
2022/11/18 02:43:13;;;;;;;0.50;0.30;;;10.50;62.40;;;;;;20732;6773;117694;-73
2022/11/18 02:45:48;;;;;;;0.30;0.30;;;10.50;62.40;;;;;;20515;6777;335582;-72
2022/11/18 02:48:25;;;;;;;0.37;0.37;;;10.70;62.10;;;;;;20720;6777;117257;-74
2022/11/18 02:51:01;;;;;;;0.30;0.30;;;10.70;61.80;;;;;;20675;6792;117413;-72
2022/11/18 02:53:36;;;;;;;0.33;0.30;;;10.50;62.30;;;;;;20754;6777;117399;-73
2022/11/18 02:56:12;;;;;;;1.70;0.60;;;10.30;62.80;;;;;;20841;6749;117208;-73
2022/11/18 02:58:48;;;;;;;0.50;0.50;;;10.20;63.30;;;;;;20734;6762;117185;-73
2022/11/18 03:01:23;;;;;;;0.50;0.50;;;10.10;63.70;;;;;;20543;6768;277957;-74
2022/11/18 03:03:59;;;;;;;1.07;0.50;;;10.40;64.00;;;;;;20841;6744;122574;-73
2022/11/18 03:06:41;;;;;;;0.43;0.40;;;10.40;63.30;;;;;;20780;6768;116971;-73
2022/11/18 03:09:20;;;;;;;0.40;0.40;;;10.30;63.70;;;;;;20462;6777;283502;-74
2022/11/18 03:12:02;;;;;;;0.52;0.52;;;11.00;63.20;;;;;;20458;6796;337820;-73
2022/11/18 03:14:54;;;;;;;0.40;0.40;;;11.00;63.20;;;;;;20726;6785;118021;-73
2022/11/18 03:17:43;;;;;;;0.40;0.40;;;10.90;62.80;;;;;;20568;6760;306774;-73
2022/11/18 03:20:26;;;;;;;1.53;0.40;;;11.10;62.60;;;;;;20589;6774;119197;-74
2022/11/18 03:23:21;;;;;;;0.50;0.50;;;11.00;62.50;;;;;;20468;6812;340383;-74
2022/11/18 03:26:16;;;;;;;1.20;0.70;;;11.10;62.30;;;;;;20578;6756;306674;-74
2022/11/18 03:28:52;;;;;;;0.90;0.30;;;11.40;61.80;;;;;;20735;6760;120036;-73
2022/11/18 03:31:38;;;;;;;0.23;0.23;;;11.30;61.80;;;;;;20821;6768;117389;-74
2022/11/18 03:34:14;;;;;;;0.40;0.40;;;11.00;62.60;;;;;;20652;6756;335639;-73
2022/11/18 03:36:49;;;;;;;0.40;0.40;;;11.10;62.80;;;;;;20827;6756;117538;-73
2022/11/18 03:39:25;;;;;;;0.43;0.43;;;11.10;62.70;;;;;;20786;6745;117480;-73
2022/11/18 03:42:03;;;;;;;0.30;0.30;;;10.90;63.20;;;;;;20640;6742;276352;-74
2022/11/18 03:44:39;;;;;;;0.77;0.20;;;11.00;62.90;;;;;;20891;6730;117094;-73
2022/11/18 03:47:19;;;;;;;0.45;0.30;;;11.20;62.50;;;;;;20607;6755;306061;-74
2022/11/18 03:49:55;;;;;;;0.40;0.40;;;11.10;62.30;;;;;;20739;6730;122784;-73
2022/11/18 03:52:30;;;;;;;0.30;0.20;;;11.10;62.20;;;;;;20895;6728;116968;-73
2022/11/18 03:55:10;;;;;;;0.80;0.30;;;11.00;62.40;;;;;;20679;6728;338773;-73
2022/11/18 03:57:59;;;;;;;2.73;0.50;;;11.00;62.40;;;;;;20876;6728;118398;-72
2022/11/18 04:00:37;;;;;;;0.30;0.30;;;11.00;62.30;;;;;;20807;6757;117240;-73
2022/11/18 04:03:13;;;;;;;0.40;0.40;;;10.80;62.90;;;;;;20861;6742;117195;-72
2022/11/18 04:05:49;;;;;;;0.90;0.70;;;10.80;63.60;;;;;;20585;6757;317567;-73
2022/11/18 04:08:25;;;;;;;0.60;0.60;;;10.80;63.60;;;;;;20761;6760;121301;-73
2022/11/18 04:11:00;;;;;;;0.70;0.70;;;10.80;63.30;;;;;;20718;6790;117205;-74
2022/11/18 04:13:36;;;;;;;0.73;0.70;;;10.70;63.80;;;;;;20565;6771;278513;-72
2022/11/18 04:16:12;;;;;;;1.30;0.85;;;10.90;63.50;;;;;;20505;6786;315592;-74
2022/11/18 04:18:48;;;;;;;0.60;0.60;;;11.20;62.10;;;;;;20628;6801;117466;-73
2022/11/18 04:21:24;;;;;;;0.70;0.63;;;11.20;62.10;;;;;;20840;6756;117033;-73
2022/11/18 04:23:59;;;;;;;0.50;0.50;;;11.00;62.70;;;;;;20619;6754;277179;-75
2022/11/18 04:26:35;;;;;;;0.80;0.60;;;11.10;62.50;;;;;;20805;6766;117565;-72
2022/11/18 04:29:14;;;;;;;0.40;0.40;;;10.90;62.70;;;;;;20735;6758;117011;-73
2022/11/18 04:31:47;;;;;;;0.40;0.40;;;10.90;62.70;;;;;;20797;6756;118622;-73
2022/11/18 04:34:22;;;;;;;0.50;0.50;;;10.70;63.20;;;;;;20544;6775;307231;-73
2022/11/18 04:36:59;;;;;;;0.60;0.60;;;10.80;63.00;;;;;;20801;6760;119825;-70
2022/11/18 04:39:35;;;;;;;1.30;0.60;;;10.80;62.80;;;;;;20484;6756;308334;-73
2022/11/18 04:42:10;;;;;;;0.43;0.43;;;11.00;62.60;;;;;;20596;6756;320925;-73
2022/11/18 04:44:46;;;;;;;0.40;0.40;;;11.30;61.40;;;;;;20851;6745;116922;-74
2022/11/18 04:47:21;;;;;;;2.83;0.40;;;11.20;61.20;;;;;;20760;6770;117105;-75
2022/11/18 04:49:57;;;;;;;0.70;0.40;;;10.90;62.40;;;;;;20349;6775;470344;-75
2022/11/18 04:52:33;;;;;;;0.73;0.33;;;11.00;61.60;;;;;;20812;6775;117099;-72
2022/11/18 04:55:08;;;;;;;1.08;0.50;;;10.90;61.40;;;;;;20500;6790;277954;-71
2022/11/18 04:57:45;;;;;;;0.30;0.20;;;10.80;60.30;;;;;;20735;6775;117202;-72
2022/11/18 05:00:21;;;;;;;0.33;0.30;;;10.80;60.20;;;;;;20587;6831;117677;-71
2022/11/18 05:02:56;;;;;;;0.40;0.13;;;10.50;60.70;;;;;;20726;6768;117111;-72
2022/11/18 05:05:31;;;;;;;0.53;0.23;;;10.30;61.30;;;;;;20515;6783;336261;-73
2022/11/18 05:08:07;;;;;;;0.67;0.40;;;10.40;60.20;;;;;;20734;6779;117751;-72
2022/11/18 05:10:43;;;;;;;4.47;4.18;;;10.50;59.30;;;;;;20619;6753;339678;-72
2022/11/18 05:13:19;;;;;;;1.30;1.30;;;10.50;58.60;;;;;;20724;6794;117428;-72
2022/11/18 05:15:55;;;;;;;0.90;0.40;;;10.60;58.90;;;;;;20569;6760;305418;-72
2022/11/18 05:18:31;;;;;;;0.37;0.20;;;10.60;58.90;;;;;;20462;6785;313789;-72
2022/11/18 05:21:06;;;;;;;0.20;0.20;;;10.90;58.30;;;;;;20737;6790;119374;-72
2022/11/18 05:23:42;;;;;;;0.20;0.20;;;10.70;58.40;;;;;;20577;6757;305389;-73
2022/11/18 05:26:19;;;;;;;0.20;0.17;;;10.80;58.30;;;;;;20827;6760;117502;-72
2022/11/18 05:29:00;;;;;;;0.20;0.20;;;10.70;58.50;;;;;;20718;6760;118366;-75
2022/11/18 05:31:30;;;;;;;0.83;0.10;;;10.40;59.20;;;;;;20788;6775;117249;-74
2022/11/18 05:34:09;;;;;;;0.60;0.20;;;10.20;60.00;;;;;;20559;6775;281059;-74
2022/11/18 05:36:41;;;;;;;0.60;0.20;;;10.30;59.80;;;;;;20666;6745;277346;-72
2022/11/18 05:39:17;;;;;;;0.53;0.20;;;10.70;59.20;;;;;;20726;6756;117142;-72
2022/11/18 05:44:51;;;;;;;0.20;0.20;;;10.70;59.20;;;;;;20829;6756;120861;-72
2022/11/18 05:47:24;;;;;;;0.37;0.37;;;10.60;59.50;;;;;;20821;6756;117041;-73
2022/11/18 05:49:59;;;;;;;0.10;0.10;;;10.30;60.10;;;;;;20639;6756;118003;-72
2022/11/18 05:52:35;;;;;;;0.17;0.13;;;10.10;60.70;;;;;;20820;6756;117018;-71
2022/11/18 05:55:10;;;;;;;0.20;0.20;;;10.00;61.20;;;;;;20809;6756;117235;-73
2022/11/18 05:57:47;;;;;;;0.30;0.20;;;10.10;61.60;;;;;;20621;6760;335162;-73
2022/11/18 06:00:22;;;;;;;0.93;0.33;;;10.10;61.60;;;;;;20623;6816;116725;-73
2022/11/18 06:02:58;;;;;;;0.60;0.30;;;10.20;61.30;;;;;;20503;6786;323365;-72
2022/11/18 06:05:35;;;;;;;0.77;0.20;;;10.40;61.20;;;;;;20715;6786;117613;-72
2022/11/18 06:08:10;;;;;;;0.50;0.30;;;10.40;60.90;;;;;;20561;6760;306752;-72
2022/11/18 06:10:46;;;;;;;0.77;0.40;;;10.50;60.60;;;;;;20728;6778;117367;-72
2022/11/18 06:13:21;;;;;;;1.40;0.40;;;10.50;60.50;;;;;;20672;6790;117348;-74
2022/11/18 06:15:57;;;;;;;1.00;0.40;;;10.30;61.00;;;;;;20507;6775;306681;-76
2022/11/18 06:18:33;;;;;;;0.70;0.40;;;10.40;61.40;;;;;;20649;6783;121592;-73
2022/11/18 06:21:08;;;;;;;0.30;0.30;;;10.40;60.70;;;;;;20745;6764;123369;-75
2022/11/18 06:23:44;;;;;;;0.30;0.30;;;10.20;61.20;;;;;;20701;6783;119149;-72
2022/11/18 06:26:19;;;;;;;0.43;0.40;;;10.00;61.80;;;;;;20698;6786;117551;-73
2022/11/18 06:28:55;;;;;;;0.50;0.30;;;9.90;63.30;;;;;;20665;6771;118257;-73
2022/11/18 06:31:30;;;;;;;1.63;0.40;;;9.80;63.70;;;;;;20712;6782;119264;-71
2022/11/18 06:34:06;;;;;;;0.50;0.50;;;9.70;64.10;;;;;;20521;6775;341137;-71
2022/11/18 06:36:42;;;;;;;2.30;0.57;;;10.00;63.00;;;;;;20737;6772;116959;-73
2022/11/18 06:39:17;;;;;;;0.67;0.67;;;10.10;62.60;;;;;;20660;6787;117353;-71
2022/11/18 06:41:53;;;;;;;0.70;0.70;;;9.90;63.70;;;;;;20468;6801;311959;-71
2022/11/18 06:44:28;;;;;;;0.90;0.70;;;10.10;62.90;;;;;;20778;6771;117444;-71
2022/11/18 06:47:04;;;;;;;1.07;1.07;;;10.20;62.50;;;;;;20822;6763;117621;-71
2022/11/18 06:49:40;;;;;;;1.23;1.10;;;10.00;62.80;;;;;;20441;6753;328164;-72
2022/11/18 06:52:15;;;;;;;1.40;1.30;;;10.20;62.80;;;;;;20793;6764;117368;-72
2022/11/18 06:54:51;;;;;;;1.63;1.53;;;10.30;62.50;;;;;;20534;6779;307117;-72
2022/11/18 06:57:26;;;;;;;1.90;1.80;;;10.40;62.60;;;;;;20568;6764;336207;-73
2022/11/18 07:00:02;;;;;;;1.50;1.50;;;10.80;61.80;;;;;;20599;6769;117469;-73
2022/11/18 07:02:38;;;;;;;1.67;1.57;;;10.80;61.80;;;;;;20572;6769;308231;-74
2022/11/18 07:05:14;;;;;;;2.00;1.70;;;10.80;61.40;;;;;;20572;6756;278705;-71
2022/11/18 07:07:50;;;;;;;1.27;1.23;;;11.00;60.60;;;;;;20738;6771;117258;-71
2022/11/18 07:10:25;;;;;;;1.40;1.30;;;10.90;60.60;;;;;;20614;6831;117678;-71
2022/11/18 07:13:02;;;;;;;1.63;1.30;;;10.30;62.20;;;;;;20798;6768;117486;-74
2022/11/18 07:15:37;;;;;;;1.43;1.33;;;10.30;62.20;;;;;;20801;6745;119500;-73
2022/11/18 07:18:13;;;;;;;2.15;1.50;;;10.10;62.80;;;;;;20532;6771;278137;-73
2022/11/18 07:20:48;;;;;;;1.10;1.00;;;10.30;62.90;;;;;;20758;6771;117143;-74
2022/11/18 07:23:24;;;;;;;2.60;1.00;;;10.40;62.70;;;;;;20783;6771;117264;-73
2022/11/18 07:26:00;;;;;;;2.90;1.42;;;10.20;62.90;;;;;;20516;6779;335111;-72
2022/11/18 07:28:35;;;;;;;0.93;0.93;;;10.40;62.80;;;;;;20464;6779;317901;-72
2022/11/18 07:31:11;;;;;;;1.33;1.23;;;10.70;61.60;;;;;;20588;6763;314190;-72
2022/11/18 07:33:47;;;;;;;0.93;0.93;;;10.90;60.80;;;;;;20703;6790;117487;-73
2022/11/18 07:36:23;;;;;;;1.30;1.20;;;10.90;61.30;;;;;;20484;6796;305713;-72
2022/11/18 07:38:59;;;;;;;1.20;1.00;;;10.90;61.20;;;;;;20705;6772;121034;-73
2022/11/18 07:41:35;;;;;;;1.37;0.87;;;10.80;61.10;;;;;;20729;6785;117094;-73
2022/11/18 07:44:10;;;;;;;0.90;0.90;;;10.60;61.90;;;;;;20748;6775;117332;-72
2022/11/18 07:46:47;;;;;;;2.30;0.90;;;10.40;62.60;;;;;;20718;6786;117246;-72
2022/11/18 07:49:23;;;;;;;0.67;0.67;;;10.20;63.80;;;;;;20686;6771;117313;-73
2022/11/18 07:51:59;;;;;;;0.80;0.80;;;10.10;63.70;;;;;;20755;6756;120884;-72
2022/11/18 07:54:35;;;;;;;1.83;0.90;;;10.40;63.90;;;;;;20654;6745;303803;-72
2022/11/18 07:57:11;;;;;;;0.80;0.80;;;10.40;63.90;;;;;;20852;6760;117027;-72
2022/11/18 07:59:47;;;;;;;1.23;0.80;;;10.50;63.40;;;;;;20679;6760;127199;-72
2022/11/18 08:02:22;;;;;;;0.70;0.70;;;10.20;63.70;;;;;;20874;6760;117196;-72
2022/11/18 08:05:01;;;;;;;0.70;0.70;;;10.20;63.70;;;;;;20696;6745;305545;-73
2022/11/18 08:07:34;;;;;;;0.70;0.70;;;10.40;63.40;;;;;;20637;6760;276578;-72
2022/11/18 08:10:09;;;;;;;0.67;0.67;;;10.90;61.90;;;;;;20625;6760;117463;-72
2022/11/18 08:12:54;;;;;;;1.33;0.60;;;10.80;61.60;;;;;;20849;6745;116909;-72
2022/11/18 08:15:20;;;;;;;0.70;0.70;;;10.60;62.10;;;;;;20874;6745;117098;-72
2022/11/18 08:17:56;;;;;;;0.80;0.80;;;10.40;62.80;;;;;;20630;6745;279023;-72
2022/11/18 08:20:32;;;;;;;0.90;0.90;;;10.60;62.70;;;;;;20643;6745;306175;-70
2022/11/18 08:23:07;;;;;;;0.77;0.77;;;11.00;61.80;;;;;;20657;6748;281211;-71
2022/11/18 08:25:43;;;;;;;0.83;0.80;;;11.30;60.50;;;;;;20652;6734;309748;-71
2022/11/18 08:28:19;;;;;;;1.70;0.87;;;11.70;59.30;;;;;;20572;6760;308467;-71
2022/11/18 08:30:55;;;;;;;1.00;0.90;;;11.70;59.30;;;;;;20566;6771;277897;-71
2022/11/18 08:33:30;;;;;;;0.90;0.60;;;11.80;58.60;;;;;;20651;6745;277648;-71
2022/11/18 08:36:13;;;;;;;0.80;0.80;;;11.90;58.40;;;;;;20685;6730;279414;-71
2022/11/18 08:38:48;;;;;;;0.88;0.82;;;12.00;58.20;;;;;;20491;6771;280568;-71
2022/11/18 08:41:34;;;;;;;1.40;1.00;;;12.00;58.00;;;;;;20610;6754;305862;-71
2022/11/18 08:44:10;;;;;;;2.43;1.17;;;12.10;58.10;;;;;;20815;6754;116970;-72
2022/11/18 08:46:45;;;;;;;1.47;0.90;;;11.80;58.60;;;;;;20847;6745;119277;-72
2022/11/18 08:49:21;;;;;;;1.00;1.00;;;11.40;59.70;;;;;;20764;6745;117034;-72
2022/11/18 08:51:56;;;;;;;1.23;1.12;;;11.10;60.60;;;;;;20505;6771;308736;-72
2022/11/18 08:54:32;;;;;;;1.30;1.20;;;11.20;61.10;;;;;;20501;6790;279242;-72
2022/11/18 08:57:07;;;;;;;1.20;1.20;;;11.50;60.40;;;;;;20724;6786;117703;-72
2022/11/18 08:59:44;;;;;;;1.23;1.20;;;11.40;60.60;;;;;;20364;6775;281679;-72
2022/11/18 09:02:19;;;;;;;1.07;1.07;;;11.40;60.20;;;;;;20496;6786;309019;-71
2022/11/18 09:04:55;;;;;;;1.40;0.80;;;11.60;59.40;;;;;;20707;6794;117209;-72
2022/11/18 09:07:31;;;;;;;1.17;0.80;;;11.20;60.40;;;;;;20693;6783;117781;-72
2022/11/18 09:10:07;;;;;;;0.80;0.80;;;11.10;60.30;;;;;;20288;6804;344319;-72
2022/11/18 09:12:43;;;;;;;1.00;0.70;;;11.20;60.40;;;;;;20495;6771;306154;-72
2022/11/18 09:15:18;;;;;;;0.83;0.83;;;11.50;59.60;;;;;;20562;6778;307359;-72
2022/11/18 09:17:54;;;;;;;0.63;0.60;;;11.70;58.90;;;;;;20734;6804;149116;-72
2022/11/18 09:20:29;;;;;;;1.03;0.97;;;11.60;59.20;;;;;;20572;6786;280348;-72
2022/11/18 09:23:06;;;;;;;0.68;0.60;;;11.60;59.20;;;;;;20571;6781;314605;-72
2022/11/18 09:25:42;;;;;;;3.13;0.80;;;11.80;58.60;;;;;;20805;6771;117985;-72
2022/11/18 09:28:17;;;;;;;0.60;0.60;;;11.70;59.00;;;;;;20700;6786;117437;-72
2022/11/18 09:30:53;;;;;;;1.30;0.87;;;11.40;59.80;;;;;;20724;6786;117332;-72
2022/11/18 09:33:28;;;;;;;2.20;0.80;;;11.10;60.50;;;;;;20814;6771;117482;-72
2022/11/18 09:36:05;;;;;;;1.10;1.10;;;11.10;61.80;;;;;;20581;6771;337419;-74
2022/11/18 09:38:43;;;;;;;0.90;0.90;;;11.10;61.30;;;;;;20760;6771;117204;-71
2022/11/18 09:41:25;;;;;;;1.25;1.15;;;11.20;61.20;;;;;;20652;6756;277789;-71
2022/11/18 09:44:05;;;;;;;1.10;1.10;;;11.30;61.10;;;;;;20845;6756;117429;-70
2022/11/18 09:46:47;;;;;;;2.00;1.30;;;11.30;61.10;;;;;;20862;6756;117082;-71
2022/11/18 09:49:29;;;;;;;1.13;0.93;;;11.10;61.60;;;;;;20757;6757;120931;-71
2022/11/18 09:52:15;;;;;;;1.47;1.00;;;10.90;62.10;;;;;;20762;6771;119268;-71
2022/11/18 09:54:51;;;;;;;1.33;1.20;;;10.80;62.60;;;;;;20806;6760;116985;-71
2022/11/18 09:57:43;;;;;;;0.90;0.90;;;10.70;63.00;;;;;;20715;6790;117787;-71
2022/11/18 10:00:19;;;;;;;1.37;1.07;;;10.60;63.40;;;;;;20348;6785;305096;-71
2022/11/18 10:03:05;;;;;;;1.00;1.00;;;11.00;63.40;;;;;;20764;6773;117066;-72
2022/11/18 10:05:47;;;;;;;4.00;0.90;;;11.00;63.40;;;;;;20748;6771;131038;-72
2022/11/18 10:08:32;;;;;;;1.30;1.00;;;10.90;63.70;;;;;;20728;6771;117421;-71
2022/11/18 10:11:24;;;;;;;1.30;1.10;;;10.90;64.30;;;;;;20780;6767;117544;-74
2022/11/18 10:14:13;;;;;;;1.50;1.30;;;10.80;64.60;;;;;;20551;6767;277792;-71
2022/11/18 10:17:09;;;;;;;1.50;1.40;;;11.10;64.70;;;;;;20584;6772;311119;-71
2022/11/18 10:19:51;;;;;;;2.00;1.60;;;11.60;63.30;;;;;;20442;6756;309231;-71
2022/11/18 10:22:29;;;;;;;1.47;1.30;;;12.00;62.10;;;;;;20830;6749;117220;-71
2022/11/18 10:25:05;;;;;;;1.60;1.50;;;11.90;62.00;;;;;;20823;6749;117498;-71
2022/11/18 10:27:40;;;;;;;1.63;1.40;;;11.70;62.60;;;;;;20798;6749;117507;-71
2022/11/18 10:30:16;;;;;;;1.43;1.23;;;11.50;63.50;;;;;;20630;6749;117507;-70
2022/11/18 10:32:52;;;;;;;1.57;1.30;;;11.40;64.10;;;;;;20777;6771;117174;-71
2022/11/18 10:35:27;;;;;;;1.43;1.33;;;11.30;64.50;;;;;;20753;6760;117102;-70
2022/11/18 10:38:13;;;;;;;0.90;0.90;;;11.30;65.00;;;;;;20739;6768;122575;-71
2022/11/18 10:40:49;;;;;;;1.00;1.00;;;11.30;65.10;;;;;;20807;6775;117102;-72
2022/11/18 10:43:47;;;;;;;1.10;0.60;;;11.20;65.20;;;;;;20819;6764;117455;-73
2022/11/18 10:46:29;;;;;;;0.70;0.70;;;11.20;65.40;;;;;;20579;6771;307007;-72
2022/11/18 10:49:09;;;;;;;0.87;0.87;;;12.00;62.70;;;;;;20255;6766;336714;-70
2022/11/18 10:51:45;;;;;;;0.77;0.77;;;12.00;62.60;;;;;;20799;6756;119142;-71
2022/11/18 10:54:20;;;;;;;0.80;0.63;;;12.00;62.20;;;;;;20784;6756;117396;-71
2022/11/18 10:56:59;;;;;;;0.70;0.70;;;11.80;63.20;;;;;;20615;6741;313776;-70
2022/11/18 10:59:38;;;;;;;0.50;0.50;;;12.00;62.50;;;;;;20495;6837;123047;-71
2022/11/18 11:02:33;;;;;;;0.40;0.40;;;11.90;62.90;;;;;;20803;6758;118144;-70
2022/11/18 11:05:18;;;;;;;0.67;0.57;;;11.80;62.80;;;;;;20534;6771;307207;-70
2022/11/18 11:08:17;;;;;;;0.70;0.70;;;12.00;63.00;;;;;;20550;6760;306459;-70
2022/11/18 11:10:56;;;;;;;0.43;0.43;;;12.30;61.20;;;;;;20777;6758;117451;-73
2022/11/18 11:13:31;;;;;;;2.00;1.90;;;12.20;61.20;;;;;;20523;6786;282435;-73
2022/11/18 11:16:07;;;;;;;1.95;0.68;;;12.30;61.50;;;;;;20470;6789;292839;-73
2022/11/18 11:18:44;;;;;;;1.77;1.67;;;12.50;60.90;;;;;;20689;6771;118222;-77
2022/11/18 11:21:21;;;;;;;0.80;0.80;;;12.50;61.10;;;;;;20497;6778;281776;-72
2022/11/18 11:23:55;;;;;;;0.57;0.50;;;12.50;61.00;;;;;;20692;6785;119444;-71
2022/11/18 11:26:31;;;;;;;0.50;0.50;;;12.20;61.80;;;;;;20776;6760;116991;-70
2022/11/18 11:29:20;;;;;;;1.90;1.70;;;12.20;61.70;;;;;;20476;6758;290816;-69
2022/11/18 11:32:09;;;;;;;3.07;2.87;;;12.30;61.20;;;;;;20509;6775;307906;-73
2022/11/18 11:34:46;;;;;;;1.50;1.45;;;12.60;59.90;;;;;;20494;6785;311422;-72
2022/11/18 11:48:17;;;;;;;1.70;0.60;;;13.20;57.50;;;;;;21303;6535;88401;-72
2022/11/18 11:50:54;;;;;;;1.10;1.10;;;12.70;57.80;;;;;;20298;6901;315071;-70
2022/11/18 11:53:49;;;;;;;2.43;2.33;;;12.60;58.40;;;;;;20528;6901;117498;-74
2022/11/18 11:56:41;;;;;;;0.67;0.67;;;12.30;59.10;;;;;;20490;6901;118626;-74
2022/11/18 11:59:23;;;;;;;0.60;0.60;;;11.80;60.30;;;;;;20073;6917;120309;-70
2022/11/18 12:02:09;;;;;;;1.00;1.00;;;11.50;61.30;;;;;;20244;6898;309810;-71
2022/11/18 12:04:37;;;;;;;0.60;0.60;;;11.60;61.40;;;;;;20323;6898;310063;-71
2022/11/18 12:07:03;;;;;;;0.93;0.70;;;11.90;59.70;;;;;;20290;6898;280349;-70
2022/11/18 12:09:31;;;;;;;1.17;0.90;;;12.10;58.70;;;;;;20326;6898;313587;-71
2022/11/18 12:12:33;;;;;;;0.60;0.60;;;12.40;58.80;;;;;;20547;6898;117647;-71
2022/11/18 12:14:59;;;;;;;0.77;0.77;;;12.20;59.10;;;;;;20353;6898;304787;-71
2022/11/18 12:17:28;;;;;;;0.80;0.80;;;12.30;59.90;;;;;;20548;6898;117330;-71
2022/11/18 12:19:53;;;;;;;0.60;0.60;;;12.20;60.00;;;;;;20504;6898;123514;-71
2022/11/18 12:22:19;;;;;;;1.30;0.70;;;12.00;60.70;;;;;;20321;6896;309272;-71
2022/11/18 12:24:44;;;;;;;0.60;0.60;;;12.10;61.10;;;;;;20572;6896;117490;-69
2022/11/18 12:27:13;;;;;;;0.55;0.50;;;12.10;61.10;;;;;;20560;6896;117415;-70
2022/11/18 12:29:49;;;;;;;1.17;1.17;;;11.80;62.20;;;;;;20558;6896;117833;-77
2022/11/18 12:32:28;;;;;;;0.97;0.60;;;11.70;62.70;;;;;;20353;6896;118038;-71
2022/11/18 12:34:54;;;;;;;1.03;0.80;;;11.70;62.50;;;;;;20348;6896;279707;-72
2022/11/18 12:37:23;;;;;;;0.70;0.70;;;11.90;61.90;;;;;;20348;6896;309216;-70
2022/11/18 12:39:59;;;;;;;0.90;0.90;;;12.20;60.30;;;;;;20551;6896;120193;-71
2022/11/18 12:45:42;;;;;;;24.92;19.02;;;12.40;59.50;;;;;;20357;6896;311155;-71
2022/11/18 12:48:31;;;;;;;1.10;0.80;;;12.70;58.40;;;;;;20359;6896;312019;-72
2022/11/18 12:51:12;;;;;;;21.20;16.53;;;12.90;57.80;;;;;;19669;6896;342687;-74
2022/11/18 12:53:45;;;;;;;4.27;3.90;;;13.00;56.70;;;;;;20559;6896;118660;-71
2022/11/18 12:56:23;;;;;;;2.53;1.50;;;12.60;56.80;;;;;;20550;6896;117527;-70
2022/11/18 12:58:48;;;;;;;1.33;1.30;;;12.10;57.80;;;;;;20350;6894;343673;-71
2022/11/18 13:01:20;;;;;;;1.27;1.00;;;12.10;58.30;;;;;;20561;6896;117319;-70
2022/11/18 13:03:45;;;;;;;1.30;1.17;;;12.00;58.90;;;;;;20301;6897;296500;-71
2022/11/18 13:06:17;;;;;;;1.87;1.77;;;12.10;59.90;;;;;;20353;6896;310487;-69
2022/11/18 13:08:43;;;;;;;1.23;1.23;;;12.40;58.80;;;;;;20335;6896;306955;-71
2022/11/18 13:19:31;;;;;;;0.77;0.77;;;12.70;59.30;;;;;;20538;6896;117879;-72
2022/11/18 13:24:33;;;;;;;1.37;0.60;;;12.20;60.60;;;;;;19553;7234;120047;-72
2022/11/18 13:26:59;;;;;;;0.33;0.33;;;12.20;60.60;;;;;;20406;6896;118280;-71
2022/11/18 13:29:41;;;;;;;0.60;0.60;;;12.00;61.00;;;;;;20570;6896;116640;-71
2022/11/18 13:32:23;;;;;;;1.53;0.80;;;12.00;61.40;;;;;;20545;6896;118251;-71
2022/11/18 13:34:49;;;;;;;0.93;0.83;;;11.80;61.50;;;;;;20567;6896;117341;-71
2022/11/18 13:37:25;;;;;;;0.90;0.90;;;12.00;60.80;;;;;;20318;6898;339391;-71
2022/11/18 13:39:50;;;;;;;0.73;0.60;;;12.00;60.80;;;;;;20536;6896;119667;-73
2022/11/18 13:42:19;;;;;;;1.60;1.10;;;12.10;60.60;;;;;;20354;6896;338742;-71
2022/11/18 13:44:51;;;;;;;1.63;0.73;;;12.30;59.90;;;;;;20565;6896;117449;-71
2022/11/18 13:47:46;;;;;;;0.70;0.70;;;12.30;59.70;;;;;;20565;6896;119882;-72
2022/11/18 13:50:32;;;;;;;0.83;0.50;;;12.10;60.00;;;;;;20554;6896;118071;-71
2022/11/18 13:53:25;;;;;;;0.57;0.57;;;12.20;58.30;;;;;;20351;6896;314052;-71
2022/11/18 13:55:51;;;;;;;1.73;0.90;;;12.10;58.20;;;;;;20547;6896;117921;-72
2022/11/18 13:58:16;;;;;;;0.77;0.77;;;12.10;58.30;;;;;;20342;6896;314395;-70
2022/11/18 14:00:42;;;;;;;1.10;0.57;;;12.30;56.70;;;;;;20560;6896;118442;-73